sensor_id;sensor_type;location;lat;lon;timestamp;temperature;humidity
51815;DHT22;37874;53.158;6.766;2023-05-31T00:01:56;22.00;52.00
51815;DHT22;37874;53.158;6.766;2023-05-31T00:04:21;22.00;52.00
51815;DHT22;37874;53.158;6.766;2023-05-31T00:06:47;22.00;52.00
51815;DHT22;37874;53.158;6.766;2023-05-31T00:09:12;22.00;52.60
51815;DHT22;37874;53.158;6.766;2023-05-31T00:11:38;22.00;52.00
51815;DHT22;37874;53.158;6.766;2023-05-31T00:14:04;22.00;52.10
51815;DHT22;37874;53.158;6.766;2023-05-31T00:16:29;22.00;52.00
51815;DHT22;37874;53.158;6.766;2023-05-31T00:18:55;21.70;51.80
51815;DHT22;37874;53.158;6.766;2023-05-31T00:21:21;22.00;51.90
51815;DHT22;37874;53.158;6.766;2023-05-31T00:23:47;22.00;52.00
51815;DHT22;37874;53.158;6.766;2023-05-31T00:26:13;21.90;52.00
51815;DHT22;37874;53.158;6.766;2023-05-31T00:28:38;22.00;52.00
51815;DHT22;37874;53.158;6.766;2023-05-31T00:31:04;22.00;52.00
51815;DHT22;37874;53.158;6.766;2023-05-31T00:33:29;22.00;52.00
51815;DHT22;37874;53.158;6.766;2023-05-31T00:35:55;21.90;52.00
51815;DHT22;37874;53.158;6.766;2023-05-31T00:38:20;21.90;52.00
51815;DHT22;37874;53.158;6.766;2023-05-31T00:40:46;21.90;51.90
51815;DHT22;37874;53.158;6.766;2023-05-31T00:43:13;21.90;52.00
51815;DHT22;37874;53.158;6.766;2023-05-31T00:45:38;21.90;52.00
51815;DHT22;37874;53.158;6.766;2023-05-31T00:48:04;21.90;52.00
51815;DHT22;37874;53.158;6.766;2023-05-31T00:50:30;21.90;52.00
51815;DHT22;37874;53.158;6.766;2023-05-31T00:52:57;21.80;52.00
51815;DHT22;37874;53.158;6.766;2023-05-31T00:55:23;21.90;52.00
51815;DHT22;37874;53.158;6.766;2023-05-31T00:57:50;21.90;52.10
51815;DHT22;37874;53.158;6.766;2023-05-31T01:00:16;21.90;52.00
51815;DHT22;37874;53.158;6.766;2023-05-31T01:02:42;21.90;52.10
51815;DHT22;37874;53.158;6.766;2023-05-31T01:05:09;21.80;52.00
51815;DHT22;37874;53.158;6.766;2023-05-31T01:07:35;21.80;52.00
51815;DHT22;37874;53.158;6.766;2023-05-31T01:10:02;21.80;52.10
51815;DHT22;37874;53.158;6.766;2023-05-31T01:17:40;21.80;52.00
51815;DHT22;37874;53.158;6.766;2023-05-31T01:20:11;21.80;52.00
51815;DHT22;37874;53.158;6.766;2023-05-31T01:23:00;21.80;52.00
51815;DHT22;37874;53.158;6.766;2023-05-31T01:28:24;21.80;52.00
51815;DHT22;37874;53.158;6.766;2023-05-31T01:30:51;21.80;52.00
51815;DHT22;37874;53.158;6.766;2023-05-31T01:33:18;21.80;52.00
51815;DHT22;37874;53.158;6.766;2023-05-31T01:35:44;21.80;52.00
51815;DHT22;37874;53.158;6.766;2023-05-31T01:38:09;21.80;52.00
51815;DHT22;37874;53.158;6.766;2023-05-31T01:40:35;21.70;51.90
51815;DHT22;37874;53.158;6.766;2023-05-31T01:43:03;21.80;52.00
51815;DHT22;37874;53.158;6.766;2023-05-31T01:45:30;21.70;51.90
51815;DHT22;37874;53.158;6.766;2023-05-31T01:48:01;21.70;51.90
51815;DHT22;37874;53.158;6.766;2023-05-31T01:50:28;21.70;52.00
51815;DHT22;37874;53.158;6.766;2023-05-31T01:52:53;21.70;52.00
51815;DHT22;37874;53.158;6.766;2023-05-31T01:55:20;21.70;52.00
51815;DHT22;37874;53.158;6.766;2023-05-31T01:57:46;21.70;52.00
51815;DHT22;37874;53.158;6.766;2023-05-31T02:00:12;21.70;52.00
51815;DHT22;37874;53.158;6.766;2023-05-31T02:02:44;21.70;52.00
51815;DHT22;37874;53.158;6.766;2023-05-31T02:05:11;21.80;52.00
51815;DHT22;37874;53.158;6.766;2023-05-31T02:07:41;21.70;52.00
51815;DHT22;37874;53.158;6.766;2023-05-31T02:10:07;21.70;52.00
51815;DHT22;37874;53.158;6.766;2023-05-31T02:12:33;21.70;52.00
51815;DHT22;37874;53.158;6.766;2023-05-31T02:14:59;21.70;51.90
51815;DHT22;37874;53.158;6.766;2023-05-31T02:17:25;21.70;51.90
51815;DHT22;37874;53.158;6.766;2023-05-31T02:19:51;21.70;51.90
51815;DHT22;37874;53.158;6.766;2023-05-31T02:22:17;21.60;51.90
51815;DHT22;37874;53.158;6.766;2023-05-31T02:24:43;21.60;51.90
51815;DHT22;37874;53.158;6.766;2023-05-31T02:27:09;21.70;51.90
51815;DHT22;37874;53.158;6.766;2023-05-31T02:29:35;21.60;51.90
51815;DHT22;37874;53.158;6.766;2023-05-31T02:32:01;21.60;51.90
51815;DHT22;37874;53.158;6.766;2023-05-31T02:34:27;21.60;51.90
51815;DHT22;37874;53.158;6.766;2023-05-31T02:36:52;21.60;52.00
51815;DHT22;37874;53.158;6.766;2023-05-31T02:39:18;21.60;52.00
51815;DHT22;37874;53.158;6.766;2023-05-31T02:41:44;21.60;52.00
51815;DHT22;37874;53.158;6.766;2023-05-31T02:44:10;21.60;52.00
51815;DHT22;37874;53.158;6.766;2023-05-31T02:46:35;21.60;52.00
51815;DHT22;37874;53.158;6.766;2023-05-31T02:49:01;21.60;52.00
51815;DHT22;37874;53.158;6.766;2023-05-31T02:51:27;21.60;52.10
51815;DHT22;37874;53.158;6.766;2023-05-31T02:53:53;21.60;52.00
51815;DHT22;37874;53.158;6.766;2023-05-31T02:56:19;21.50;51.90
51815;DHT22;37874;53.158;6.766;2023-05-31T02:58:46;21.60;51.90
51815;DHT22;37874;53.158;6.766;2023-05-31T03:01:11;21.50;51.90
51815;DHT22;37874;53.158;6.766;2023-05-31T03:03:39;21.60;52.00
51815;DHT22;37874;53.158;6.766;2023-05-31T03:06:05;21.50;51.90
51815;DHT22;37874;53.158;6.766;2023-05-31T03:08:31;21.50;51.90
51815;DHT22;37874;53.158;6.766;2023-05-31T03:10:56;21.50;52.00
51815;DHT22;37874;53.158;6.766;2023-05-31T03:13:22;21.50;51.90
51815;DHT22;37874;53.158;6.766;2023-05-31T03:15:48;21.50;51.90
51815;DHT22;37874;53.158;6.766;2023-05-31T03:18:13;21.50;51.90
51815;DHT22;37874;53.158;6.766;2023-05-31T03:20:39;21.50;51.90
51815;DHT22;37874;53.158;6.766;2023-05-31T03:23:05;21.50;51.90
51815;DHT22;37874;53.158;6.766;2023-05-31T03:25:32;21.50;51.80
51815;DHT22;37874;53.158;6.766;2023-05-31T03:27:58;21.40;51.80
51815;DHT22;37874;53.158;6.766;2023-05-31T03:30:24;21.50;51.80
51815;DHT22;37874;53.158;6.766;2023-05-31T03:32:49;21.50;51.80
51815;DHT22;37874;53.158;6.766;2023-05-31T03:35:16;21.50;51.90
51815;DHT22;37874;53.158;6.766;2023-05-31T03:37:43;21.50;51.80
51815;DHT22;37874;53.158;6.766;2023-05-31T03:40:08;21.40;51.90
51815;DHT22;37874;53.158;6.766;2023-05-31T03:42:34;21.50;51.90
51815;DHT22;37874;53.158;6.766;2023-05-31T03:45:01;21.50;51.90
51815;DHT22;37874;53.158;6.766;2023-05-31T03:47:26;21.50;51.90
51815;DHT22;37874;53.158;6.766;2023-05-31T03:49:52;21.50;52.00
51815;DHT22;37874;53.158;6.766;2023-05-31T03:52:18;21.50;51.90
51815;DHT22;37874;53.158;6.766;2023-05-31T03:54:43;21.70;52.00
51815;DHT22;37874;53.158;6.766;2023-05-31T03:57:09;21.50;51.90
51815;DHT22;37874;53.158;6.766;2023-05-31T03:59:35;21.50;51.80
51815;DHT22;37874;53.158;6.766;2023-05-31T04:02:02;21.40;51.80
51815;DHT22;37874;53.158;6.766;2023-05-31T04:04:28;21.50;51.70
51815;DHT22;37874;53.158;6.766;2023-05-31T04:06:53;21.50;51.80
51815;DHT22;37874;53.158;6.766;2023-05-31T04:09:19;21.40;51.70
51815;DHT22;37874;53.158;6.766;2023-05-31T04:11:45;21.50;51.70
51815;DHT22;37874;53.158;6.766;2023-05-31T04:14:11;21.50;51.60
51815;DHT22;37874;53.158;6.766;2023-05-31T04:16:37;21.60;51.60
51815;DHT22;37874;53.158;6.766;2023-05-31T04:19:03;21.50;51.60
51815;DHT22;37874;53.158;6.766;2023-05-31T04:21:29;21.60;51.70
51815;DHT22;37874;53.158;6.766;2023-05-31T04:23:55;21.50;51.50
51815;DHT22;37874;53.158;6.766;2023-05-31T04:26:21;21.50;51.60
51815;DHT22;37874;53.158;6.766;2023-05-31T04:28:46;21.50;51.50
51815;DHT22;37874;53.158;6.766;2023-05-31T04:31:19;21.50;51.50
51815;DHT22;37874;53.158;6.766;2023-05-31T04:33:44;21.50;51.40
51815;DHT22;37874;53.158;6.766;2023-05-31T04:36:10;21.60;51.50
51815;DHT22;37874;53.158;6.766;2023-05-31T04:38:36;21.60;51.60
51815;DHT22;37874;53.158;6.766;2023-05-31T04:41:02;21.60;51.50
51815;DHT22;37874;53.158;6.766;2023-05-31T04:43:29;21.60;51.50
51815;DHT22;37874;53.158;6.766;2023-05-31T04:45:54;21.60;51.40
51815;DHT22;37874;53.158;6.766;2023-05-31T04:48:21;21.60;51.40
51815;DHT22;37874;53.158;6.766;2023-05-31T04:50:47;21.60;51.40
51815;DHT22;37874;53.158;6.766;2023-05-31T04:53:14;21.60;52.00
51815;DHT22;37874;53.158;6.766;2023-05-31T04:55:40;21.70;51.50
51815;DHT22;37874;53.158;6.766;2023-05-31T04:58:05;21.60;51.40
51815;DHT22;37874;53.158;6.766;2023-05-31T05:00:34;21.60;51.30
51815;DHT22;37874;53.158;6.766;2023-05-31T05:03:00;21.60;51.30
51815;DHT22;37874;53.158;6.766;2023-05-31T05:05:26;21.60;51.30
51815;DHT22;37874;53.158;6.766;2023-05-31T05:07:52;21.60;51.30
51815;DHT22;37874;53.158;6.766;2023-05-31T05:10:18;21.70;51.20
51815;DHT22;37874;53.158;6.766;2023-05-31T05:12:44;21.70;51.30
51815;DHT22;37874;53.158;6.766;2023-05-31T05:15:10;21.70;51.20
51815;DHT22;37874;53.158;6.766;2023-05-31T05:17:36;21.70;51.10
51815;DHT22;37874;53.158;6.766;2023-05-31T05:20:02;21.70;51.10
51815;DHT22;37874;53.158;6.766;2023-05-31T05:22:30;21.70;51.10
51815;DHT22;37874;53.158;6.766;2023-05-31T05:24:56;21.70;51.10
51815;DHT22;37874;53.158;6.766;2023-05-31T05:27:22;21.70;51.00
51815;DHT22;37874;53.158;6.766;2023-05-31T05:29:47;21.70;51.00
51815;DHT22;37874;53.158;6.766;2023-05-31T05:32:13;21.70;50.90
51815;DHT22;37874;53.158;6.766;2023-05-31T05:34:39;21.70;50.90
51815;DHT22;37874;53.158;6.766;2023-05-31T05:37:05;21.70;51.00
51815;DHT22;37874;53.158;6.766;2023-05-31T05:39:31;21.70;51.00
51815;DHT22;37874;53.158;6.766;2023-05-31T05:41:56;21.70;51.00
51815;DHT22;37874;53.158;6.766;2023-05-31T05:44:22;21.70;50.90
51815;DHT22;37874;53.158;6.766;2023-05-31T05:46:48;21.70;50.80
51815;DHT22;37874;53.158;6.766;2023-05-31T05:49:13;21.70;50.80
51815;DHT22;37874;53.158;6.766;2023-05-31T05:51:39;21.70;50.80
51815;DHT22;37874;53.158;6.766;2023-05-31T05:54:04;21.80;50.80
51815;DHT22;37874;53.158;6.766;2023-05-31T05:56:31;21.80;50.80
51815;DHT22;37874;53.158;6.766;2023-05-31T05:58:56;21.80;50.80
51815;DHT22;37874;53.158;6.766;2023-05-31T06:01:22;21.80;50.80
51815;DHT22;37874;53.158;6.766;2023-05-31T06:03:52;21.70;50.60
51815;DHT22;37874;53.158;6.766;2023-05-31T06:06:18;21.70;50.80
51815;DHT22;37874;53.158;6.766;2023-05-31T06:08:45;21.80;50.70
51815;DHT22;37874;53.158;6.766;2023-05-31T06:11:11;21.80;50.70
51815;DHT22;37874;53.158;6.766;2023-05-31T06:13:37;21.80;50.70
51815;DHT22;37874;53.158;6.766;2023-05-31T06:16:03;21.80;50.70
51815;DHT22;37874;53.158;6.766;2023-05-31T06:18:30;21.90;50.70
51815;DHT22;37874;53.158;6.766;2023-05-31T06:20:55;21.90;50.80
51815;DHT22;37874;53.158;6.766;2023-05-31T06:23:21;21.80;50.60
51815;DHT22;37874;53.158;6.766;2023-05-31T06:25:47;21.80;50.60
51815;DHT22;37874;53.158;6.766;2023-05-31T06:28:13;21.80;50.60
51815;DHT22;37874;53.158;6.766;2023-05-31T06:30:38;21.90;50.70
51815;DHT22;37874;53.158;6.766;2023-05-31T06:33:04;21.90;50.60
51815;DHT22;37874;53.158;6.766;2023-05-31T06:35:29;21.90;50.70
51815;DHT22;37874;53.158;6.766;2023-05-31T06:37:55;21.90;50.60
51815;DHT22;37874;53.158;6.766;2023-05-31T06:40:22;21.90;50.70
51815;DHT22;37874;53.158;6.766;2023-05-31T06:42:48;21.90;50.70
51815;DHT22;37874;53.158;6.766;2023-05-31T06:45:13;22.00;50.80
51815;DHT22;37874;53.158;6.766;2023-05-31T06:47:39;21.90;50.70
51815;DHT22;37874;53.158;6.766;2023-05-31T06:50:05;22.30;50.90
51815;DHT22;37874;53.158;6.766;2023-05-31T06:52:31;21.90;50.60
51815;DHT22;37874;53.158;6.766;2023-05-31T06:54:57;21.90;50.60
51815;DHT22;37874;53.158;6.766;2023-05-31T06:57:22;22.00;50.60
51815;DHT22;37874;53.158;6.766;2023-05-31T06:59:48;22.00;50.50
51815;DHT22;37874;53.158;6.766;2023-05-31T07:02:14;21.90;50.60
51815;DHT22;37874;53.158;6.766;2023-05-31T07:04:40;22.00;50.50
51815;DHT22;37874;53.158;6.766;2023-05-31T07:07:06;21.90;51.00
51815;DHT22;37874;53.158;6.766;2023-05-31T07:09:34;21.80;51.30
51815;DHT22;37874;53.158;6.766;2023-05-31T07:12:00;21.50;51.90
51815;DHT22;37874;53.158;6.766;2023-05-31T07:14:30;21.30;52.30
51815;DHT22;37874;53.158;6.766;2023-05-31T07:16:55;21.10;52.90
51815;DHT22;37874;53.158;6.766;2023-05-31T07:19:21;21.00;53.50
51815;DHT22;37874;53.158;6.766;2023-05-31T07:21:47;21.40;54.20
51815;DHT22;37874;53.158;6.766;2023-05-31T07:24:12;20.70;54.30
51815;DHT22;37874;53.158;6.766;2023-05-31T07:26:38;20.50;54.60
51815;DHT22;37874;53.158;6.766;2023-05-31T07:29:03;20.40;55.00
51815;DHT22;37874;53.158;6.766;2023-05-31T07:31:29;20.40;55.10
51815;DHT22;37874;53.158;6.766;2023-05-31T07:33:55;20.30;55.30
51815;DHT22;37874;53.158;6.766;2023-05-31T07:36:21;20.30;55.60
51815;DHT22;37874;53.158;6.766;2023-05-31T07:38:51;20.30;55.80
51815;DHT22;37874;53.158;6.766;2023-05-31T07:41:18;20.20;55.80
51815;DHT22;37874;53.158;6.766;2023-05-31T07:43:44;20.10;55.90
51815;DHT22;37874;53.158;6.766;2023-05-31T07:46:11;20.20;56.10
51815;DHT22;37874;53.158;6.766;2023-05-31T07:48:37;20.20;56.10
51815;DHT22;37874;53.158;6.766;2023-05-31T07:51:02;20.30;55.70
51815;DHT22;37874;53.158;6.766;2023-05-31T07:53:28;20.50;55.40
51815;DHT22;37874;53.158;6.766;2023-05-31T07:55:54;20.70;55.10
51815;DHT22;37874;53.158;6.766;2023-05-31T07:58:19;20.80;54.80
51815;DHT22;37874;53.158;6.766;2023-05-31T08:00:45;21.00;54.60
51815;DHT22;37874;53.158;6.766;2023-05-31T08:03:12;21.00;54.30
51815;DHT22;37874;53.158;6.766;2023-05-31T08:05:37;21.10;54.10
51815;DHT22;37874;53.158;6.766;2023-05-31T08:08:03;21.10;54.00
51815;DHT22;37874;53.158;6.766;2023-05-31T08:10:31;21.20;53.90
51815;DHT22;37874;53.158;6.766;2023-05-31T08:12:57;21.20;53.90
51815;DHT22;37874;53.158;6.766;2023-05-31T08:15:22;21.30;53.90
51815;DHT22;37874;53.158;6.766;2023-05-31T08:17:48;21.30;53.90
51815;DHT22;37874;53.158;6.766;2023-05-31T08:20:13;21.30;53.90
51815;DHT22;37874;53.158;6.766;2023-05-31T08:22:42;21.30;53.90
51815;DHT22;37874;53.158;6.766;2023-05-31T08:25:08;21.30;53.70
51815;DHT22;37874;53.158;6.766;2023-05-31T08:27:34;21.30;53.70
51815;DHT22;37874;53.158;6.766;2023-05-31T08:30:00;21.30;53.70
51815;DHT22;37874;53.158;6.766;2023-05-31T08:32:26;21.30;53.60
51815;DHT22;37874;53.158;6.766;2023-05-31T08:34:51;21.30;53.60
51815;DHT22;37874;53.158;6.766;2023-05-31T08:37:18;21.40;53.60
51815;DHT22;37874;53.158;6.766;2023-05-31T08:39:45;21.40;53.60
51815;DHT22;37874;53.158;6.766;2023-05-31T08:42:24;21.40;53.60
51815;DHT22;37874;53.158;6.766;2023-05-31T08:44:56;21.40;53.60
51815;DHT22;37874;53.158;6.766;2023-05-31T08:47:23;21.30;53.50
51815;DHT22;37874;53.158;6.766;2023-05-31T08:49:54;21.40;53.60
51815;DHT22;37874;53.158;6.766;2023-05-31T08:52:21;21.40;53.50
51815;DHT22;37874;53.158;6.766;2023-05-31T08:54:48;21.40;53.50
51815;DHT22;37874;53.158;6.766;2023-05-31T08:57:14;21.40;53.50
51815;DHT22;37874;53.158;6.766;2023-05-31T08:59:40;21.40;53.50
51815;DHT22;37874;53.158;6.766;2023-05-31T09:02:08;21.40;53.60
51815;DHT22;37874;53.158;6.766;2023-05-31T09:04:35;21.40;53.80
51815;DHT22;37874;53.158;6.766;2023-05-31T09:07:01;21.40;53.80
51815;DHT22;37874;53.158;6.766;2023-05-31T09:09:27;21.40;53.90
51815;DHT22;37874;53.158;6.766;2023-05-31T09:11:53;21.40;53.80
51815;DHT22;37874;53.158;6.766;2023-05-31T09:14:18;21.50;53.70
51815;DHT22;37874;53.158;6.766;2023-05-31T09:16:44;21.50;53.30
51815;DHT22;37874;53.158;6.766;2023-05-31T09:19:10;21.60;52.90
51815;DHT22;37874;53.158;6.766;2023-05-31T09:21:40;21.80;52.50
51815;DHT22;37874;53.158;6.766;2023-05-31T09:24:06;21.90;52.10
51815;DHT22;37874;53.158;6.766;2023-05-31T09:26:33;22.00;51.90
51815;DHT22;37874;53.158;6.766;2023-05-31T09:28:58;22.10;51.70
51815;DHT22;37874;53.158;6.766;2023-05-31T09:31:24;22.20;51.50
51815;DHT22;37874;53.158;6.766;2023-05-31T09:33:51;22.20;51.30
51815;DHT22;37874;53.158;6.766;2023-05-31T09:36:37;22.30;51.20
51815;DHT22;37874;53.158;6.766;2023-05-31T09:39:07;22.40;51.10
51815;DHT22;37874;53.158;6.766;2023-05-31T09:41:34;22.40;50.90
51815;DHT22;37874;53.158;6.766;2023-05-31T09:44:01;22.40;50.80
51815;DHT22;37874;53.158;6.766;2023-05-31T09:46:27;22.50;50.70
51815;DHT22;37874;53.158;6.766;2023-05-31T09:49:06;22.50;50.60
51815;DHT22;37874;53.158;6.766;2023-05-31T09:51:32;22.60;50.60
51815;DHT22;37874;53.158;6.766;2023-05-31T09:54:00;22.60;50.50
51815;DHT22;37874;53.158;6.766;2023-05-31T09:56:36;22.70;50.40
51815;DHT22;37874;53.158;6.766;2023-05-31T09:59:02;22.70;50.30
51815;DHT22;37874;53.158;6.766;2023-05-31T10:01:32;22.80;50.20
51815;DHT22;37874;53.158;6.766;2023-05-31T10:03:58;22.70;50.10
51815;DHT22;37874;53.158;6.766;2023-05-31T10:06:29;22.80;50.20
51815;DHT22;37874;53.158;6.766;2023-05-31T10:08:55;22.80;50.00
51815;DHT22;37874;53.158;6.766;2023-05-31T10:11:32;22.80;50.00
51815;DHT22;37874;53.158;6.766;2023-05-31T10:14:02;22.90;49.90
51815;DHT22;37874;53.158;6.766;2023-05-31T10:16:32;22.90;49.70
51815;DHT22;37874;53.158;6.766;2023-05-31T10:19:03;22.90;50.30
51815;DHT22;37874;53.158;6.766;2023-05-31T10:21:30;23.00;49.50
51815;DHT22;37874;53.158;6.766;2023-05-31T10:24:06;23.00;49.40
51815;DHT22;37874;53.158;6.766;2023-05-31T10:29:23;23.10;49.10
51815;DHT22;37874;53.158;6.766;2023-05-31T10:31:51;23.10;49.10
51815;DHT22;37874;53.158;6.766;2023-05-31T10:34:24;23.20;49.10
51815;DHT22;37874;53.158;6.766;2023-05-31T10:36:51;23.20;49.00
51815;DHT22;37874;53.158;6.766;2023-05-31T10:42:29;23.30;48.70
51815;DHT22;37874;53.158;6.766;2023-05-31T10:45:14;23.30;48.70
51815;DHT22;37874;53.158;6.766;2023-05-31T10:47:46;23.30;48.50
51815;DHT22;37874;53.158;6.766;2023-05-31T10:50:19;23.40;48.50
51815;DHT22;37874;53.158;6.766;2023-05-31T10:52:51;23.40;48.50
51815;DHT22;37874;53.158;6.766;2023-05-31T10:55:23;23.40;48.50
51815;DHT22;37874;53.158;6.766;2023-05-31T10:57:54;23.40;48.50
51815;DHT22;37874;53.158;6.766;2023-05-31T11:00:22;23.40;48.20
51815;DHT22;37874;53.158;6.766;2023-05-31T11:02:52;23.40;48.30
51815;DHT22;37874;53.158;6.766;2023-05-31T11:05:21;23.50;48.30
51815;DHT22;37874;53.158;6.766;2023-05-31T11:07:48;23.50;48.20
51815;DHT22;37874;53.158;6.766;2023-05-31T11:10:27;23.50;48.10
51815;DHT22;37874;53.158;6.766;2023-05-31T11:12:56;23.60;48.10
51815;DHT22;37874;53.158;6.766;2023-05-31T11:15:41;23.60;48.20
51815;DHT22;37874;53.158;6.766;2023-05-31T11:18:08;23.60;47.70
51815;DHT22;37874;53.158;6.766;2023-05-31T11:20:35;23.60;47.90
51815;DHT22;37874;53.158;6.766;2023-05-31T11:23:24;23.60;47.90
51815;DHT22;37874;53.158;6.766;2023-05-31T11:26:09;23.60;47.60
51815;DHT22;37874;53.158;6.766;2023-05-31T11:29:00;23.70;47.70
51815;DHT22;37874;53.158;6.766;2023-05-31T11:34:25;23.70;47.60
51815;DHT22;37874;53.158;6.766;2023-05-31T11:36:52;23.70;47.50
51815;DHT22;37874;53.158;6.766;2023-05-31T11:39:21;23.70;47.40
51815;DHT22;37874;53.158;6.766;2023-05-31T11:41:46;23.80;48.00
51815;DHT22;37874;53.158;6.766;2023-05-31T11:44:14;23.80;47.30
51815;DHT22;37874;53.158;6.766;2023-05-31T11:46:45;23.80;47.40
51815;DHT22;37874;53.158;6.766;2023-05-31T11:49:13;23.80;47.30
51815;DHT22;37874;53.158;6.766;2023-05-31T11:51:42;23.90;47.30
51815;DHT22;37874;53.158;6.766;2023-05-31T11:54:08;23.90;47.10
51815;DHT22;37874;53.158;6.766;2023-05-31T11:56:37;23.90;47.10
51815;DHT22;37874;53.158;6.766;2023-05-31T11:59:03;23.90;47.00
51815;DHT22;37874;53.158;6.766;2023-05-31T12:01:35;24.00;47.00
51815;DHT22;37874;53.158;6.766;2023-05-31T12:04:01;24.10;47.00
51815;DHT22;37874;53.158;6.766;2023-05-31T12:06:27;24.10;46.80
51815;DHT22;37874;53.158;6.766;2023-05-31T12:08:53;24.10;46.80
51815;DHT22;37874;53.158;6.766;2023-05-31T12:11:20;24.30;46.60
51815;DHT22;37874;53.158;6.766;2023-05-31T12:13:47;24.30;46.40
51815;DHT22;37874;53.158;6.766;2023-05-31T12:16:13;24.30;46.20
51815;DHT22;37874;53.158;6.766;2023-05-31T12:18:39;24.40;46.00
51815;DHT22;37874;53.158;6.766;2023-05-31T12:21:09;24.60;45.80
51815;DHT22;37874;53.158;6.766;2023-05-31T12:23:56;24.60;45.50
51815;DHT22;37874;53.158;6.766;2023-05-31T12:26:24;24.80;45.00
51815;DHT22;37874;53.158;6.766;2023-05-31T12:28:52;25.00;44.90
51815;DHT22;37874;53.158;6.766;2023-05-31T12:31:22;25.40;44.30
51815;DHT22;37874;53.158;6.766;2023-05-31T12:33:56;25.60;43.40
51815;DHT22;37874;53.158;6.766;2023-05-31T12:36:22;25.90;43.00
51815;DHT22;37874;53.158;6.766;2023-05-31T12:38:53;26.10;42.30
51815;DHT22;37874;53.158;6.766;2023-05-31T12:41:21;26.40;42.00
51815;DHT22;37874;53.158;6.766;2023-05-31T12:43:48;26.60;41.40
51815;DHT22;37874;53.158;6.766;2023-05-31T12:46:17;26.80;41.00
51815;DHT22;37874;53.158;6.766;2023-05-31T12:48:49;27.00;40.60
51815;DHT22;37874;53.158;6.766;2023-05-31T12:51:22;27.20;40.20
51815;DHT22;37874;53.158;6.766;2023-05-31T12:53:48;27.40;39.90
51815;DHT22;37874;53.158;6.766;2023-05-31T12:56:14;27.50;39.40
51815;DHT22;37874;53.158;6.766;2023-05-31T12:58:41;27.70;39.00
51815;DHT22;37874;53.158;6.766;2023-05-31T13:01:07;27.90;38.70
51815;DHT22;37874;53.158;6.766;2023-05-31T13:03:33;28.10;38.50
51815;DHT22;37874;53.158;6.766;2023-05-31T13:05:59;28.30;38.20
51815;DHT22;37874;53.158;6.766;2023-05-31T13:08:25;28.40;37.90
51815;DHT22;37874;53.158;6.766;2023-05-31T13:10:50;28.60;37.60
51815;DHT22;37874;53.158;6.766;2023-05-31T13:13:16;28.70;37.30
51815;DHT22;37874;53.158;6.766;2023-05-31T13:15:42;28.80;37.00
51815;DHT22;37874;53.158;6.766;2023-05-31T13:18:07;28.90;36.80
51815;DHT22;37874;53.158;6.766;2023-05-31T13:20:33;29.10;36.50
51815;DHT22;37874;53.158;6.766;2023-05-31T13:22:58;29.30;36.50
51815;DHT22;37874;53.158;6.766;2023-05-31T13:25:24;29.40;36.10
51815;DHT22;37874;53.158;6.766;2023-05-31T13:27:50;29.50;36.10
51815;DHT22;37874;53.158;6.766;2023-05-31T13:30:16;29.60;35.80
51815;DHT22;37874;53.158;6.766;2023-05-31T13:32:41;29.70;35.70
51815;DHT22;37874;53.158;6.766;2023-05-31T13:35:08;29.80;35.70
51815;DHT22;37874;53.158;6.766;2023-05-31T13:37:35;30.00;35.60
51815;DHT22;37874;53.158;6.766;2023-05-31T13:40:01;30.10;35.70
51815;DHT22;37874;53.158;6.766;2023-05-31T13:42:27;30.10;35.50
51815;DHT22;37874;53.158;6.766;2023-05-31T13:44:53;30.30;35.40
51815;DHT22;37874;53.158;6.766;2023-05-31T13:47:19;30.40;35.40
51815;DHT22;37874;53.158;6.766;2023-05-31T13:49:45;30.50;35.20
51815;DHT22;37874;53.158;6.766;2023-05-31T13:52:11;30.60;35.20
51815;DHT22;37874;53.158;6.766;2023-05-31T13:54:39;30.50;35.00
51815;DHT22;37874;53.158;6.766;2023-05-31T13:57:05;30.70;35.10
51815;DHT22;37874;53.158;6.766;2023-05-31T13:59:30;30.60;35.00
51815;DHT22;37874;53.158;6.766;2023-05-31T14:01:57;30.80;34.80
51815;DHT22;37874;53.158;6.766;2023-05-31T14:04:22;30.90;35.00
51815;DHT22;37874;53.158;6.766;2023-05-31T14:06:48;31.00;34.90
51815;DHT22;37874;53.158;6.766;2023-05-31T14:09:14;31.00;34.70
51815;DHT22;37874;53.158;6.766;2023-05-31T14:11:41;31.10;34.80
51815;DHT22;37874;53.158;6.766;2023-05-31T14:14:06;31.10;34.60
51815;DHT22;37874;53.158;6.766;2023-05-31T14:16:32;31.30;34.60
51815;DHT22;37874;53.158;6.766;2023-05-31T14:18:57;31.30;34.50
51815;DHT22;37874;53.158;6.766;2023-05-31T14:21:23;31.40;34.40
51815;DHT22;37874;53.158;6.766;2023-05-31T14:23:48;31.40;34.40
51815;DHT22;37874;53.158;6.766;2023-05-31T14:26:14;31.50;34.60
51815;DHT22;37874;53.158;6.766;2023-05-31T14:28:39;31.50;34.40
51815;DHT22;37874;53.158;6.766;2023-05-31T14:31:05;31.50;34.50
51815;DHT22;37874;53.158;6.766;2023-05-31T14:33:31;31.60;34.40
51815;DHT22;37874;53.158;6.766;2023-05-31T14:35:56;31.60;34.30
51815;DHT22;37874;53.158;6.766;2023-05-31T14:38:22;31.60;34.20
51815;DHT22;37874;53.158;6.766;2023-05-31T14:40:47;31.80;34.40
51815;DHT22;37874;53.158;6.766;2023-05-31T14:43:13;31.80;34.30
51815;DHT22;37874;53.158;6.766;2023-05-31T14:45:38;31.80;34.10
51815;DHT22;37874;53.158;6.766;2023-05-31T14:48:04;31.90;34.20
51815;DHT22;37874;53.158;6.766;2023-05-31T14:50:30;31.90;34.10
51815;DHT22;37874;53.158;6.766;2023-05-31T14:53:04;32.00;34.00
51815;DHT22;37874;53.158;6.766;2023-05-31T14:55:30;32.10;33.90
51815;DHT22;37874;53.158;6.766;2023-05-31T14:57:56;32.10;33.90
51815;DHT22;37874;53.158;6.766;2023-05-31T15:00:22;32.20;33.90
51815;DHT22;37874;53.158;6.766;2023-05-31T15:02:48;32.20;33.80
51815;DHT22;37874;53.158;6.766;2023-05-31T15:05:13;32.20;33.70
51815;DHT22;37874;53.158;6.766;2023-05-31T15:07:39;32.30;33.70
51815;DHT22;37874;53.158;6.766;2023-05-31T15:10:05;32.40;33.60
51815;DHT22;37874;53.158;6.766;2023-05-31T15:12:30;32.30;33.40
51815;DHT22;37874;53.158;6.766;2023-05-31T15:14:56;32.50;33.50
51815;DHT22;37874;53.158;6.766;2023-05-31T15:17:21;32.40;33.40
51815;DHT22;37874;53.158;6.766;2023-05-31T15:19:47;32.50;33.40
51815;DHT22;37874;53.158;6.766;2023-05-31T15:22:13;32.30;33.30
51815;DHT22;37874;53.158;6.766;2023-05-31T15:24:38;32.40;33.40
51815;DHT22;37874;53.158;6.766;2023-05-31T15:27:05;32.40;33.40
51815;DHT22;37874;53.158;6.766;2023-05-31T15:29:31;32.40;33.50
51815;DHT22;37874;53.158;6.766;2023-05-31T15:31:57;32.40;33.50
51815;DHT22;37874;53.158;6.766;2023-05-31T15:34:28;32.40;33.60
51815;DHT22;37874;53.158;6.766;2023-05-31T15:36:54;32.30;33.40
51815;DHT22;37874;53.158;6.766;2023-05-31T15:39:20;32.30;33.40
51815;DHT22;37874;53.158;6.766;2023-05-31T15:41:46;32.30;33.50
51815;DHT22;37874;53.158;6.766;2023-05-31T15:44:12;32.30;33.40
51815;DHT22;37874;53.158;6.766;2023-05-31T15:46:39;32.30;33.50